sensor_id;sensor_type;location;lat;lon;timestamp;pressure;altitude;pressure_sealevel;temperature;humidity
9839;BME280;4958;48.150;11.506;2024-01-10T00:02:57;95552.66;;;-3.34;68.46
9839;BME280;4958;48.150;11.506;2024-01-10T00:06:16;95559.13;;;-3.30;68.40
9839;BME280;4958;48.150;11.506;2024-01-10T00:08:58;95578.78;;;-3.23;68.76
9839;BME280;4958;48.150;11.506;2024-01-10T00:11:58;95586.16;;;-3.20;68.92
9839;BME280;4958;48.150;11.506;2024-01-10T00:14:54;95597.75;;;-3.17;68.94
9839;BME280;4958;48.150;11.506;2024-01-10T00:21:27;95633.44;;;-3.10;69.44
9839;BME280;4958;48.150;11.506;2024-01-10T00:25:45;95632.59;;;-2.97;69.27
9839;BME280;4958;48.150;11.506;2024-01-10T00:28:06;95582.47;;;-2.87;68.50
9839;BME280;4958;48.150;11.506;2024-01-10T00:31:35;95559.59;;;-2.84;68.30
9839;BME280;4958;48.150;11.506;2024-01-10T00:34:51;95600.66;;;-2.96;69.16
9839;BME280;4958;48.150;11.506;2024-01-10T00:41:28;95609.16;;;-2.85;69.08
9839;BME280;4958;48.150;11.506;2024-01-10T00:44:40;95614.56;;;-2.76;69.24
9839;BME280;4958;48.150;11.506;2024-01-10T00:47:20;95606.50;;;-2.69;68.66
9839;BME280;4958;48.150;11.506;2024-01-10T00:51:17;95587.78;;;-2.65;68.63
9839;BME280;4958;48.150;11.506;2024-01-10T00:53:41;95583.53;;;-2.64;68.74
9839;BME280;4958;48.150;11.506;2024-01-10T00:56:41;95594.44;;;-2.64;68.69
9839;BME280;4958;48.150;11.506;2024-01-10T01:00:15;95593.53;;;-2.63;68.87
9839;BME280;4958;48.150;11.506;2024-01-10T01:03:03;95600.63;;;-2.55;68.80
9839;BME280;4958;48.150;11.506;2024-01-10T01:06:41;95608.28;;;-2.57;68.79
9839;BME280;4958;48.150;11.506;2024-01-10T01:22:50;95658.97;;;-2.61;69.56
9839;BME280;4958;48.150;11.506;2024-01-10T01:26:11;95664.09;;;-2.63;69.55
9839;BME280;4958;48.150;11.506;2024-01-10T01:29:07;95651.59;;;-2.64;69.55
9839;BME280;4958;48.150;11.506;2024-01-10T01:38:52;95708.09;;;-2.68;70.58
9839;BME280;4958;48.150;11.506;2024-01-10T01:41:47;95717.19;;;-2.66;70.47
9839;BME280;4958;48.150;11.506;2024-01-10T01:48:29;95740.34;;;-2.73;71.16
9839;BME280;4958;48.150;11.506;2024-01-10T01:51:45;95750.16;;;-2.83;71.65
9839;BME280;4958;48.150;11.506;2024-01-10T01:54:26;95773.81;;;-2.86;71.69
9839;BME280;4958;48.150;11.506;2024-01-10T01:56:58;95783.78;;;-2.84;71.73
9839;BME280;4958;48.150;11.506;2024-01-10T01:59:53;95777.44;;;-2.90;71.71
9839;BME280;4958;48.150;11.506;2024-01-10T02:02:22;95780.94;;;-2.92;72.06
9839;BME280;4958;48.150;11.506;2024-01-10T02:05:10;95794.16;;;-2.89;72.08
9839;BME280;4958;48.150;11.506;2024-01-10T02:15:09;95819.44;;;-2.76;72.60
9839;BME280;4958;48.150;11.506;2024-01-10T02:18:08;95796.59;;;-2.73;72.53
9839;BME280;4958;48.150;11.506;2024-01-10T02:21:09;95802.34;;;-2.71;72.43
9839;BME280;4958;48.150;11.506;2024-01-10T02:40:58;95801.72;;;-2.74;72.50
9839;BME280;4958;48.150;11.506;2024-01-10T02:44:11;95826.53;;;-2.83;73.14
9839;BME280;4958;48.150;11.506;2024-01-10T02:49:21;95849.38;;;-2.86;73.25
9839;BME280;4958;48.150;11.506;2024-01-10T02:51:08;95856.59;;;-2.80;73.31
9839;BME280;4958;48.150;11.506;2024-01-10T03:04:21;95860.97;;;-2.97;74.00
9839;BME280;4958;48.150;11.506;2024-01-10T03:07:10;95857.56;;;-2.96;73.88
9839;BME280;4958;48.150;11.506;2024-01-10T03:10:26;95871.06;;;-2.97;74.56
9839;BME280;4958;48.150;11.506;2024-01-10T03:13:21;95858.94;;;-2.91;74.17
9839;BME280;4958;48.150;11.506;2024-01-10T03:16:12;95860.44;;;-2.88;74.22
9839;BME280;4958;48.150;11.506;2024-01-10T03:22:31;95853.44;;;-2.83;74.11
9839;BME280;4958;48.150;11.506;2024-01-10T03:25:18;95843.34;;;-2.83;73.84
9839;BME280;4958;48.150;11.506;2024-01-10T03:31:11;95837.16;;;-2.78;73.61
9839;BME280;4958;48.150;11.506;2024-01-10T03:32:16;95830.16;;;-2.72;73.55
9839;BME280;4958;48.150;11.506;2024-01-10T03:35:26;95825.00;;;-2.85;73.84
9839;BME280;4958;48.150;11.506;2024-01-10T03:41:26;95848.56;;;-2.86;74.51
9839;BME280;4958;48.150;11.506;2024-01-10T03:48:21;95866.75;;;-2.95;74.73
9839;BME280;4958;48.150;11.506;2024-01-10T03:51:06;95869.00;;;-2.91;74.96
9839;BME280;4958;48.150;11.506;2024-01-10T03:53:34;95860.19;;;-2.84;74.57
9839;BME280;4958;48.150;11.506;2024-01-10T03:56:36;95858.56;;;-2.85;74.36
9839;BME280;4958;48.150;11.506;2024-01-10T03:59:32;95872.34;;;-2.90;75.14
9839;BME280;4958;48.150;11.506;2024-01-10T04:09:10;95883.66;;;-2.97;75.80
9839;BME280;4958;48.150;11.506;2024-01-10T04:13:37;95879.53;;;-2.84;75.01
9839;BME280;4958;48.150;11.506;2024-01-10T04:16:56;95863.41;;;-2.82;75.06
9839;BME280;4958;48.150;11.506;2024-01-10T04:19:29;95845.97;;;-2.85;75.15
9839;BME280;4958;48.150;11.506;2024-01-10T04:22:22;95854.97;;;-2.81;75.08
9839;BME280;4958;48.150;11.506;2024-01-10T04:25:34;95879.25;;;-2.80;75.18
9839;BME280;4958;48.150;11.506;2024-01-10T04:28:24;95899.25;;;-2.76;75.39
9839;BME280;4958;48.150;11.506;2024-01-10T04:34:36;95889.34;;;-2.80;75.83
9839;BME280;4958;48.150;11.506;2024-01-10T04:37:37;95902.38;;;-2.87;76.11
9839;BME280;4958;48.150;11.506;2024-01-10T04:40:32;95912.81;;;-2.93;76.44
9839;BME280;4958;48.150;11.506;2024-01-10T04:47:23;95938.09;;;-2.95;77.03
9839;BME280;4958;48.150;11.506;2024-01-10T04:50:09;95938.63;;;-2.90;77.07
9839;BME280;4958;48.150;11.506;2024-01-10T04:53:00;95921.69;;;-2.88;76.68
9839;BME280;4958;48.150;11.506;2024-01-10T04:56:11;95917.22;;;-2.83;76.18
9839;BME280;4958;48.150;11.506;2024-01-10T04:59:10;95895.28;;;-2.81;76.11
9839;BME280;4958;48.150;11.506;2024-01-10T05:02:01;95904.63;;;-2.83;76.27
9839;BME280;4958;48.150;11.506;2024-01-10T05:04:54;95937.44;;;-2.98;77.20
9839;BME280;4958;48.150;11.506;2024-01-10T05:07:57;95963.34;;;-2.96;77.65
9839;BME280;4958;48.150;11.506;2024-01-10T05:10:34;95973.66;;;-3.01;77.91
9839;BME280;4958;48.150;11.506;2024-01-10T05:16:20;95987.88;;;-3.00;78.38
9839;BME280;4958;48.150;11.506;2024-01-10T05:19:04;95977.25;;;-2.89;77.87
9839;BME280;4958;48.150;11.506;2024-01-10T05:21:36;95972.66;;;-2.83;77.77
9839;BME280;4958;48.150;11.506;2024-01-10T05:25:30;95967.44;;;-2.80;77.83
9839;BME280;4958;48.150;11.506;2024-01-10T05:27:34;95976.97;;;-2.85;77.82
9839;BME280;4958;48.150;11.506;2024-01-10T05:30:21;96069.69;;;-2.75;80.36
9839;BME280;4958;48.150;11.506;2024-01-10T05:33:24;95987.44;;;-2.76;78.22
9839;BME280;4958;48.150;11.506;2024-01-10T05:36:36;95942.91;;;-2.76;77.29
9839;BME280;4958;48.150;11.506;2024-01-10T05:39:27;95959.16;;;-2.82;77.52
9839;BME280;4958;48.150;11.506;2024-01-10T05:42:03;95955.00;;;-2.83;77.29
9839;BME280;4958;48.150;11.506;2024-01-10T05:44:51;95959.63;;;-2.75;77.38
9839;BME280;4958;48.150;11.506;2024-01-10T05:54:17;95939.81;;;-2.81;76.68
9839;BME280;4958;48.150;11.506;2024-01-10T05:56:49;95954.91;;;-2.95;77.53
9839;BME280;4958;48.150;11.506;2024-01-10T05:59:39;95974.31;;;-2.97;77.51
9839;BME280;4958;48.150;11.506;2024-01-10T06:02:17;95988.13;;;-3.04;77.72
9839;BME280;4958;48.150;11.506;2024-01-10T06:04:50;96008.63;;;-3.10;78.50
9839;BME280;4958;48.150;11.506;2024-01-10T06:07:39;96061.03;;;-3.33;80.22
9839;BME280;4958;48.150;11.506;2024-01-10T06:10:36;96064.19;;;-3.29;80.19
9839;BME280;4958;48.150;11.506;2024-01-10T06:13:35;96069.53;;;-3.20;79.96
9839;BME280;4958;48.150;11.506;2024-01-10T06:17:32;96046.78;;;-3.02;79.42
9839;BME280;4958;48.150;11.506;2024-01-10T06:19:40;96009.63;;;-2.83;78.38
9839;BME280;4958;48.150;11.506;2024-01-10T06:22:07;95981.91;;;-2.83;77.50
9839;BME280;4958;48.150;11.506;2024-01-10T06:24:35;95972.31;;;-2.76;77.20
9839;BME280;4958;48.150;11.506;2024-01-10T06:27:03;95958.38;;;-2.68;76.61
9839;BME280;4958;48.150;11.506;2024-01-10T06:29:36;95927.78;;;-2.62;75.94
9839;BME280;4958;48.150;11.506;2024-01-10T06:34:51;95897.56;;;-2.62;75.21
9839;BME280;4958;48.150;11.506;2024-01-10T06:37:20;95889.19;;;-2.62;75.22
9839;BME280;4958;48.150;11.506;2024-01-10T06:39:58;95884.78;;;-2.59;74.96
9839;BME280;4958;48.150;11.506;2024-01-10T06:42:33;95883.16;;;-2.60;74.75
9839;BME280;4958;48.150;11.506;2024-01-10T06:48:36;95881.06;;;-2.82;75.54
9839;BME280;4958;48.150;11.506;2024-01-10T06:53:52;95915.78;;;-2.87;75.76
9839;BME280;4958;48.150;11.506;2024-01-10T06:56:27;95914.63;;;-2.81;75.54
9839;BME280;4958;48.150;11.506;2024-01-10T06:59:13;95897.78;;;-2.81;75.10
9839;BME280;4958;48.150;11.506;2024-01-10T07:05:35;95891.78;;;-2.78;74.92
9839;BME280;4958;48.150;11.506;2024-01-10T07:15:05;95903.81;;;-2.83;75.37
9839;BME280;4958;48.150;11.506;2024-01-10T07:21:21;95924.34;;;-2.89;75.32
9839;BME280;4958;48.150;11.506;2024-01-10T07:24:21;95931.78;;;-2.88;75.39
9839;BME280;4958;48.150;11.506;2024-01-10T07:27:19;95940.53;;;-2.79;75.43
9839;BME280;4958;48.150;11.506;2024-01-10T07:29:55;95933.53;;;-2.74;75.11
9839;BME280;4958;48.150;11.506;2024-01-10T07:32:48;95926.63;;;-2.70;74.97
9839;BME280;4958;48.150;11.506;2024-01-10T07:38:18;95926.34;;;-2.66;74.97
9839;BME280;4958;48.150;11.506;2024-01-10T07:40:54;95921.94;;;-2.62;74.66
9839;BME280;4958;48.150;11.506;2024-01-10T07:46:51;95899.72;;;-2.56;74.09
9839;BME280;4958;48.150;11.506;2024-01-10T07:49:41;95908.53;;;-2.63;74.28
9839;BME280;4958;48.150;11.506;2024-01-10T07:52:08;95893.41;;;-2.77;74.03
9839;BME280;4958;48.150;11.506;2024-01-10T07:54:51;95910.03;;;-2.89;74.55
9839;BME280;4958;48.150;11.506;2024-01-10T07:57:19;95938.41;;;-2.71;74.91
9839;BME280;4958;48.150;11.506;2024-01-10T08:00:08;95920.59;;;-2.54;74.25
9839;BME280;4958;48.150;11.506;2024-01-10T08:03:22;95906.84;;;-2.34;73.54
9839;BME280;4958;48.150;11.506;2024-01-10T08:06:03;95889.72;;;-2.15;73.20
9839;BME280;4958;48.150;11.506;2024-01-10T08:09:18;95874.03;;;-2.05;72.69
9839;BME280;4958;48.150;11.506;2024-01-10T08:12:12;95841.91;;;-1.89;72.04
9839;BME280;4958;48.150;11.506;2024-01-10T08:18:11;95806.72;;;-2.05;71.55
9839;BME280;4958;48.150;11.506;2024-01-10T08:21:04;95811.97;;;-2.08;71.57
9839;BME280;4958;48.150;11.506;2024-01-10T08:23:52;95803.41;;;-2.05;71.31
9839;BME280;4958;48.150;11.506;2024-01-10T08:26:19;95800.31;;;-1.96;71.51
9839;BME280;4958;48.150;11.506;2024-01-10T08:29:08;95790.50;;;-2.01;71.01
9839;BME280;4958;48.150;11.506;2024-01-10T08:34:28;95772.56;;;-1.57;70.30
9839;BME280;4958;48.150;11.506;2024-01-10T08:36:54;95718.56;;;-1.42;69.39
9839;BME280;4958;48.150;11.506;2024-01-10T08:39:50;95686.94;;;-1.60;69.00
9839;BME280;4958;48.150;11.506;2024-01-10T08:42:51;95714.81;;;-1.61;69.56
9839;BME280;4958;48.150;11.506;2024-01-10T08:54:30;95650.78;;;-1.48;68.18
9839;BME280;4958;48.150;11.506;2024-01-10T08:54:38;95642.09;;;-1.31;67.85
9839;BME280;4958;48.150;11.506;2024-01-10T08:57:05;95665.34;;;-1.38;68.24
9839;BME280;4958;48.150;11.506;2024-01-10T08:59:58;95669.59;;;-1.39;68.35
9839;BME280;4958;48.150;11.506;2024-01-10T09:02:25;95693.28;;;-1.03;68.60
9839;BME280;4958;48.150;11.506;2024-01-10T09:05:12;95658.16;;;-0.83;67.26
9839;BME280;4958;48.150;11.506;2024-01-10T09:08:02;95612.88;;;-0.86;66.87
9839;BME280;4958;48.150;11.506;2024-01-10T09:13:59;95572.66;;;-0.89;66.13
9839;BME280;4958;48.150;11.506;2024-01-10T09:17:02;95552.38;;;-0.76;65.62
9839;BME280;4958;48.150;11.506;2024-01-10T09:19:30;95561.25;;;-0.71;65.91
9839;BME280;4958;48.150;11.506;2024-01-10T09:22:16;95532.91;;;-0.63;65.17
9839;BME280;4958;48.150;11.506;2024-01-10T09:25:23;95514.53;;;-0.54;64.92
9839;BME280;4958;48.150;11.506;2024-01-10T09:37:57;95434.75;;;0.86;62.73
9839;BME280;4958;48.150;11.506;2024-01-10T09:41:21;95384.09;;;1.27;61.58
9839;BME280;4958;48.150;11.506;2024-01-10T09:43:55;95295.94;;;1.10;60.34
9839;BME280;4958;48.150;11.506;2024-01-10T09:46:22;95303.88;;;0.75;61.10
9839;BME280;4958;48.150;11.506;2024-01-10T09:49:09;95289.25;;;0.47;61.06
9839;BME280;4958;48.150;11.506;2024-01-10T09:52:15;95348.16;;;0.81;61.29
9839;BME280;4958;48.150;11.506;2024-01-10T09:54:45;95294.72;;;0.84;60.79
9839;BME280;4958;48.150;11.506;2024-01-10T09:57:18;95313.56;;;0.70;61.29
9839;BME280;4958;48.150;11.506;2024-01-10T09:59:49;95315.09;;;0.61;61.23
9839;BME280;4958;48.150;11.506;2024-01-10T10:05:37;95333.81;;;1.32;61.07
9839;BME280;4958;48.150;11.506;2024-01-10T10:08:28;95338.25;;;1.19;60.87
9839;BME280;4958;48.150;11.506;2024-01-10T10:11:15;95382.56;;;0.94;62.36
9839;BME280;4958;48.150;11.506;2024-01-10T10:13:43;95329.22;;;0.96;60.89
9839;BME280;4958;48.150;11.506;2024-01-10T10:16:10;95358.78;;;1.16;61.73
9839;BME280;4958;48.150;11.506;2024-01-10T10:18:39;95331.78;;;1.26;60.89
9839;BME280;4958;48.150;11.506;2024-01-10T10:21:28;95331.53;;;1.09;61.08
9839;BME280;4958;48.150;11.506;2024-01-10T10:24:00;95325.09;;;1.25;60.92
9839;BME280;4958;48.150;11.506;2024-01-10T10:26:32;95271.16;;;1.23;60.09
9839;BME280;4958;48.150;11.506;2024-01-10T10:29:00;95309.88;;;1.25;61.17
9839;BME280;4958;48.150;11.506;2024-01-10T10:31:29;95285.03;;;1.19;60.75
9839;BME280;4958;48.150;11.506;2024-01-10T10:34:21;95343.22;;;1.00;61.21
9839;BME280;4958;48.150;11.506;2024-01-10T10:36:50;95353.69;;;1.07;61.59
9839;BME280;4958;48.150;11.506;2024-01-10T10:39:19;95347.34;;;1.43;61.00
9839;BME280;4958;48.150;11.506;2024-01-10T10:41:47;95327.03;;;1.73;60.52
9839;BME280;4958;48.150;11.506;2024-01-10T10:44:19;95264.53;;;1.82;59.40
9839;BME280;4958;48.150;11.506;2024-01-10T10:46:53;95249.59;;;1.98;59.55
9839;BME280;4958;48.150;11.506;2024-01-10T10:49:27;95244.00;;;2.23;58.93
9839;BME280;4958;48.150;11.506;2024-01-10T10:52:04;95211.53;;;2.27;58.61
9839;BME280;4958;48.150;11.506;2024-01-10T10:57:33;95208.72;;;2.01;58.79
9839;BME280;4958;48.150;11.506;2024-01-10T11:00:05;95237.72;;;2.18;59.19
9839;BME280;4958;48.150;11.506;2024-01-10T11:11:55;95378.88;;;0.66;62.30
9839;BME280;4958;48.150;11.506;2024-01-10T11:14:58;95418.22;;;1.02;62.65
9839;BME280;4958;48.150;11.506;2024-01-10T11:18:11;95377.06;;;1.61;61.22
9839;BME280;4958;48.150;11.506;2024-01-10T11:21:10;95270.00;;;1.77;59.47
9839;BME280;4958;48.150;11.506;2024-01-10T11:23:43;95279.00;;;1.91;59.98
9839;BME280;4958;48.150;11.506;2024-01-10T11:26:11;95237.53;;;1.71;59.65
9839;BME280;4958;48.150;11.506;2024-01-10T11:28:40;95290.84;;;1.81;60.07
9839;BME280;4958;48.150;11.506;2024-01-10T11:31:27;95279.00;;;2.00;59.56
9839;BME280;4958;48.150;11.506;2024-01-10T11:37:19;95263.13;;;1.58;59.71
9839;BME280;4958;48.150;11.506;2024-01-10T11:39:46;95292.34;;;1.13;60.86
9839;BME280;4958;48.150;11.506;2024-01-10T11:42:21;95349.22;;;0.99;61.71
9839;BME280;4958;48.150;11.506;2024-01-10T11:44:48;95367.22;;;0.75;62.32
9839;BME280;4958;48.150;11.506;2024-01-10T11:47:18;95417.38;;;0.81;62.62
9839;BME280;4958;48.150;11.506;2024-01-10T11:49:55;95432.50;;;1.03;62.48
9839;BME280;4958;48.150;11.506;2024-01-10T11:52:23;95452.72;;;1.35;62.62
9839;BME280;4958;48.150;11.506;2024-01-10T11:54:57;95409.97;;;1.72;61.55
9839;BME280;4958;48.150;11.506;2024-01-10T11:57:54;95359.44;;;2.00;60.71
9839;BME280;4958;48.150;11.506;2024-01-10T12:00:38;95877.66;;;2.40;69.29
9839;BME280;4958;48.150;11.506;2024-01-10T12:06:34;95944.06;;;3.22;70.10
9839;BME280;4958;48.150;11.506;2024-01-10T12:09:21;95515.53;;;2.76;63.38
9839;BME280;4958;48.150;11.506;2024-01-10T13:47:55;95335.25;;;2.15;61.05
9839;BME280;4958;48.150;11.506;2024-01-10T14:04:44;95381.22;;;1.42;62.23
9839;BME280;4958;48.150;11.506;2024-01-10T14:10:46;95570.84;;;0.18;66.19
9839;BME280;4958;48.150;11.506;2024-01-10T14:29:33;95739.16;;;-0.11;68.61
9839;BME280;4958;48.150;11.506;2024-01-10T14:32:01;95767.38;;;-0.41;69.00
9839;BME280;4958;48.150;11.506;2024-01-10T14:34:46;95813.00;;;-0.55;69.96
9839;BME280;4958;48.150;11.506;2024-01-10T14:37:16;95845.28;;;-0.46;70.14
9839;BME280;4958;48.150;11.506;2024-01-10T14:39:43;95836.25;;;-0.25;69.74
9839;BME280;4958;48.150;11.506;2024-01-10T14:42:30;95806.13;;;-0.04;68.99
9839;BME280;4958;48.150;11.506;2024-01-10T14:47:53;95821.31;;;-0.53;69.87
9839;BME280;4958;48.150;11.506;2024-01-10T14:50:56;95874.31;;;-0.90;71.15
9839;BME280;4958;48.150;11.506;2024-01-10T14:57:28;95946.59;;;-0.87;72.59
9839;BME280;4958;48.150;11.506;2024-01-10T15:03:27;95983.81;;;-1.16;73.54
9839;BME280;4958;48.150;11.506;2024-01-10T15:16:16;96115.53;;;-1.65;77.36
9839;BME280;4958;48.150;11.506;2024-01-10T15:22:08;96150.59;;;-1.75;78.74
9839;BME280;4958;48.150;11.506;2024-01-10T15:27:36;96170.16;;;-1.78;79.20
9839;BME280;4958;48.150;11.506;2024-01-10T15:30:33;96185.22;;;-1.92;79.72
9839;BME280;4958;48.150;11.506;2024-01-10T15:33:26;96206.88;;;-1.88;80.08
9839;BME280;4958;48.150;11.506;2024-01-10T15:36:18;96223.28;;;-1.95;80.88
9839;BME280;4958;48.150;11.506;2024-01-10T15:38:45;96251.53;;;-2.20;82.16
9839;BME280;4958;48.150;11.506;2024-01-10T15:41:30;96266.34;;;-2.14;82.57
9839;BME280;4958;48.150;11.506;2024-01-10T15:43:59;96268.94;;;-2.00;82.37
9839;BME280;4958;48.150;11.506;2024-01-10T15:46:25;96238.03;;;-1.73;80.98
9839;BME280;4958;48.150;11.506;2024-01-10T15:49:08;96222.66;;;-1.55;80.14
9839;BME280;4958;48.150;11.506;2024-01-10T15:51:35;96211.94;;;-1.58;79.83
9839;BME280;4958;48.150;11.506;2024-01-10T15:54:02;96212.34;;;-1.66;80.06
9839;BME280;4958;48.150;11.506;2024-01-10T15:56:28;96224.41;;;-1.71;80.57
9839;BME280;4958;48.150;11.506;2024-01-10T15:59:10;96267.47;;;-2.04;82.44
9839;BME280;4958;48.150;11.506;2024-01-10T16:01:38;96274.75;;;-1.84;82.40
9839;BME280;4958;48.150;11.506;2024-01-10T16:04:11;96260.41;;;-1.67;81.81
9839;BME280;4958;48.150;11.506;2024-01-10T16:06:58;96251.50;;;-1.59;81.09
9839;BME280;4958;48.150;11.506;2024-01-10T16:09:58;96234.28;;;-1.52;80.76
9839;BME280;4958;48.150;11.506;2024-01-10T16:12:21;96221.06;;;-1.42;79.83
9839;BME280;4958;48.150;11.506;2024-01-10T16:15:12;96214.94;;;-1.37;79.74
9839;BME280;4958;48.150;11.506;2024-01-10T16:17:39;96196.53;;;-1.25;79.33
9839;BME280;4958;48.150;11.506;2024-01-10T16:20:07;96178.03;;;-1.26;78.71
9839;BME280;4958;48.150;11.506;2024-01-10T16:22:44;96197.94;;;-1.50;79.17
9839;BME280;4958;48.150;11.506;2024-01-10T16:25:13;96206.97;;;-1.46;79.65
9839;BME280;4958;48.150;11.506;2024-01-10T16:27:44;96210.50;;;-1.34;79.66
9839;BME280;4958;48.150;11.506;2024-01-10T16:30:30;96187.16;;;-1.23;78.69
9839;BME280;4958;48.150;11.506;2024-01-10T16:36:36;96157.91;;;-1.13;77.94
9839;BME280;4958;48.150;11.506;2024-01-10T16:39:17;96144.38;;;-1.12;78.19
9839;BME280;4958;48.150;11.506;2024-01-10T16:41:44;96171.38;;;-1.27;78.98
9839;BME280;4958;48.150;11.506;2024-01-10T16:44:10;96213.00;;;-1.48;80.27
9839;BME280;4958;48.150;11.506;2024-01-10T16:46:42;96250.31;;;-1.53;81.19
9839;BME280;4958;48.150;11.506;2024-01-10T16:49:09;96276.50;;;-1.70;82.16
9839;BME280;4958;48.150;11.506;2024-01-10T16:51:40;96290.59;;;-1.66;82.43
9839;BME280;4958;48.150;11.506;2024-01-10T16:54:07;96283.16;;;-1.53;82.80
9839;BME280;4958;48.150;11.506;2024-01-10T16:56:33;96282.81;;;-1.47;82.58
9839;BME280;4958;48.150;11.506;2024-01-10T16:59:02;96284.63;;;-1.49;82.36
9839;BME280;4958;48.150;11.506;2024-01-10T17:01:34;96308.19;;;-1.64;83.25
9839;BME280;4958;48.150;11.506;2024-01-10T17:04:04;96333.13;;;-1.74;84.24
9839;BME280;4958;48.150;11.506;2024-01-10T17:06:37;96357.97;;;-1.82;85.73
9839;BME280;4958;48.150;11.506;2024-01-10T17:09:19;96347.06;;;-1.83;85.60
9839;BME280;4958;48.150;11.506;2024-01-10T17:11:54;96364.81;;;-2.00;86.92
9839;BME280;4958;48.150;11.506;2024-01-10T17:14:21;96366.34;;;-1.82;86.50
9839;BME280;4958;48.150;11.506;2024-01-10T17:16:48;96355.75;;;-1.73;85.91
9839;BME280;4958;48.150;11.506;2024-01-10T17:19:30;96348.53;;;-1.79;85.79
9839;BME280;4958;48.150;11.506;2024-01-10T17:26:02;96368.44;;;-1.90;87.22
9839;BME280;4958;48.150;11.506;2024-01-10T17:31:30;96410.38;;;-2.03;89.11
9839;BME280;4958;48.150;11.506;2024-01-10T17:34:25;96424.38;;;-2.13;90.00
9839;BME280;4958;48.150;11.506;2024-01-10T17:37:23;96438.84;;;-2.01;90.19
9839;BME280;4958;48.150;11.506;2024-01-10T17:46:54;96435.38;;;-1.98;90.16
9839;BME280;4958;48.150;11.506;2024-01-10T17:50:23;96439.63;;;-1.83;90.27
9839;BME280;4958;48.150;11.506;2024-01-10T17:53:18;96419.44;;;-1.67;88.92
9839;BME280;4958;48.150;11.506;2024-01-10T17:56:23;96380.56;;;-1.49;86.89
9839;BME280;4958;48.150;11.506;2024-01-10T17:59:42;96338.69;;;-1.37;85.31
9839;BME280;4958;48.150;11.506;2024-01-10T18:06:17;96322.72;;;-1.38;84.32
9839;BME280;4958;48.150;11.506;2024-01-10T18:21:40;96313.72;;;-1.58;84.57
9839;BME280;4958;48.150;11.506;2024-01-10T18:24:07;96319.84;;;-1.62;85.01
9839;BME280;4958;48.150;11.506;2024-01-10T18:44:00;96412.75;;;-1.84;88.47
9839;BME280;4958;48.150;11.506;2024-01-10T18:54:01;96417.06;;;-1.70;88.35
9839;BME280;4958;48.150;11.506;2024-01-10T19:00:33;96424.91;;;-1.75;88.77
9839;BME280;4958;48.150;11.506;2024-01-10T19:13:35;96362.19;;;-1.67;86.13
9839;BME280;4958;48.150;11.506;2024-01-10T20:31:34;96411.63;;;-1.63;87.61
9839;BME280;4958;48.150;11.506;2024-01-10T20:34:05;96406.47;;;-1.46;86.87
9839;BME280;4958;48.150;11.506;2024-01-10T20:36:34;96393.72;;;-1.28;86.22
9839;BME280;4958;48.150;11.506;2024-01-10T20:39:11;96373.69;;;-1.16;85.24
9839;BME280;4958;48.150;11.506;2024-01-10T20:41:41;96420.66;;;-1.13;87.33
9839;BME280;4958;48.150;11.506;2024-01-10T20:44:15;96368.78;;;-1.19;85.28
9839;BME280;4958;48.150;11.506;2024-01-10T20:51:07;96385.69;;;-1.35;86.09
9839;BME280;4958;48.150;11.506;2024-01-10T20:53:34;96391.88;;;-1.41;86.42
9839;BME280;4958;48.150;11.506;2024-01-10T20:56:09;96387.94;;;-1.30;85.68
9839;BME280;4958;48.150;11.506;2024-01-10T20:58:46;96387.50;;;-1.37;86.16
9839;BME280;4958;48.150;11.506;2024-01-10T21:01:12;96407.78;;;-1.54;87.06
9839;BME280;4958;48.150;11.506;2024-01-10T21:03:39;96408.50;;;-1.52;87.42
9839;BME280;4958;48.150;11.506;2024-01-10T21:07:23;96405.56;;;-1.45;86.91
9839;BME280;4958;48.150;11.506;2024-01-10T21:10:22;96378.50;;;-1.27;85.44
9839;BME280;4958;48.150;11.506;2024-01-10T21:12:56;96353.34;;;-1.14;84.59
9839;BME280;4958;48.150;11.506;2024-01-10T21:15:28;96313.81;;;-1.29;83.66
9839;BME280;4958;48.150;11.506;2024-01-10T21:18:11;96313.19;;;-1.49;83.84
9839;BME280;4958;48.150;11.506;2024-01-10T21:20:42;96332.66;;;-1.51;84.17
9839;BME280;4958;48.150;11.506;2024-01-10T21:23:36;96358.81;;;-1.52;85.35
9839;BME280;4958;48.150;11.506;2024-01-10T21:26:16;96376.16;;;-1.46;86.01
9839;BME280;4958;48.150;11.506;2024-01-10T21:28:43;96391.88;;;-1.41;86.29
9839;BME280;4958;48.150;11.506;2024-01-10T21:35:40;96311.72;;;-1.37;83.70
9839;BME280;4958;48.150;11.506;2024-01-10T21:38:11;96327.41;;;-1.62;84.11
9839;BME280;4958;48.150;11.506;2024-01-10T21:41:09;96338.25;;;-1.60;84.44
9839;BME280;4958;48.150;11.506;2024-01-10T21:43:52;96347.63;;;-1.78;85.04
9839;BME280;4958;48.150;11.506;2024-01-10T21:46:33;96367.81;;;-1.78;85.47
9839;BME280;4958;48.150;11.506;2024-01-10T21:49:28;96367.47;;;-1.71;85.89
9839;BME280;4958;48.150;11.506;2024-01-10T21:58:29;96380.59;;;-1.96;86.67
9839;BME280;4958;48.150;11.506;2024-01-10T22:03:12;96407.63;;;-1.98;87.90
9839;BME280;4958;48.150;11.506;2024-01-10T22:09:34;96421.28;;;-2.02;88.95
9839;BME280;4958;48.150;11.506;2024-01-10T22:11:52;96422.34;;;-1.91;88.70
9839;BME280;4958;48.150;11.506;2024-01-10T22:14:29;96410.72;;;-1.78;88.19
9839;BME280;4958;48.150;11.506;2024-01-10T22:16:56;96392.16;;;-1.61;87.49
9839;BME280;4958;48.150;11.506;2024-01-10T22:19:34;96368.47;;;-1.58;86.32
9839;BME280;4958;48.150;11.506;2024-01-10T22:22:13;96339.78;;;-1.57;85.27
9839;BME280;4958;48.150;11.506;2024-01-10T22:25:01;96347.44;;;-1.59;85.70
9839;BME280;4958;48.150;11.506;2024-01-10T22:31:30;96378.31;;;-1.85;87.12
9839;BME280;4958;48.150;11.506;2024-01-10T22:33:57;96398.91;;;-1.93;88.00
9839;BME280;4958;48.150;11.506;2024-01-10T22:36:25;96406.66;;;-1.80;88.06
9839;BME280;4958;48.150;11.506;2024-01-10T22:39:11;96394.69;;;-1.77;87.63
9839;BME280;4958;48.150;11.506;2024-01-10T22:41:49;96393.06;;;-1.78;87.83
9839;BME280;4958;48.150;11.506;2024-01-10T22:44:18;96384.25;;;-1.70;87.35
9839;BME280;4958;48.150;11.506;2024-01-10T22:50:10;96381.25;;;-1.77;87.04
9839;BME280;4958;48.150;11.506;2024-01-10T22:53:17;96400.78;;;-1.81;87.66
9839;BME280;4958;48.150;11.506;2024-01-10T22:56:39;96403.69;;;-1.88;87.82
9839;BME280;4958;48.150;11.506;2024-01-10T22:59:14;96398.91;;;-1.77;87.50
9839;BME280;4958;48.150;11.506;2024-01-10T23:02:08;96410.22;;;-1.84;87.84
9839;BME280;4958;48.150;11.506;2024-01-10T23:08:40;96412.00;;;-1.86;88.13
9839;BME280;4958;48.150;11.506;2024-01-10T23:11:16;96407.03;;;-1.88;88.34
9839;BME280;4958;48.150;11.506;2024-01-10T23:17:15;96373.00;;;-1.65;86.89
9839;BME280;4958;48.150;11.506;2024-01-10T23:20:17;96352.34;;;-1.56;86.20
9839;BME280;4958;48.150;11.506;2024-01-10T23:22:44;96352.88;;;-1.51;85.87
9839;BME280;4958;48.150;11.506;2024-01-10T23:25:21;96343.66;;;-1.52;85.64